Sapinero, Colorado
Current Conditions -  °F | °C
As of 7:55 PM on Tuesday 21 Oct 2014 (Local Time) from KGUC Reporting Station
Broken Clouds Broken Clouds  
Wind Chill: 45°   Ceiling: 7000
Heat Index: 48°   Visibility: 10mi
Dew Point: 36°   Wind: 8mph
Humidity: 62%   Direction: 360°N
Pressure: 30.16"   Gusts: NA
Location:  38.4566°N, 107.296°W
Report Text: KGUC 220155Z AUTO 36007KT 10SM BKN070 BKN110 09/02 A3016 RMK AO1
Loading
Personal Weather Stations






























Interactive Weather Map
Tropical Storm Tracking
New forecast layout! Learn more

10-Day Weather Forecast

Advertisements
Track Severe Weather on mobile